Astoria, OR

6:41 PM PST on February 09, 2016 (GMT -0800)
The Slope of South | | Change Station
CLOSE
Current Station
Personal Weather Station
Location: Astoria, OR
Elevation: 213 ft
Nearby Weather Stations

Elev 213 ft 46.18 °N, 123.84 °W | Updated 4 minutes ago

Clear
Clear
57.9 °F
Feels Like 57.9 °F
N
2.2
Wind Variable Wind from West

Today
High -- | Low -- °F
--% Chance of Precip.
Yesterday
High -- | Low -- °F
Precip. -- in
Pressure 30.11 in
Visibility 10.0 miles
Clouds Clear
Dew Point 45 °F
Humidity 62%
Rainfall 0.00 in
Snow Depth Not available.
7:27 AM 5:31 PM
Waxing Crescent, 3% visible
METAR KAST 100155Z AUTO 31006KT 10SM CLR 12/06 A3011 RMK AO2 SLP194 T01220061
Pressure 30.11 in
Visibility 10.0 miles
Clouds Clear
Dew Point 45 °F
Humidity 62%
Rainfall 0.00 in
Snow Depth Not available.
7:27 AM 5:31 PM
Waxing Crescent, 3% visible
METAR KAST 100155Z AUTO 31006KT 10SM CLR 12/06 A3011 RMK AO2 SLP194 T01220061

10-Day Weather Forecast

Almanac

Astronomy

Feb. 09, 2016 Rise Set
Actual Time
Civil Twilight
Nautical Twilight
Astronomical Twilight
Moon
Length of Visible Light
Length of Day
Tomorrow will be .
, % of the Moon is Illuminated

Today's Extremes

State Highs State Lows

Community

WunderPhotos

Upload Photos

1,891,786 photos uploaded!

WunderBlog® & News

Nearby

Air Quality

  Air Quality AQ Index Pollutant
Not available.

Snow Depth

Station Depth Elevation

Earthquake Activity

City Distance Mag. Time & Date
Minimum magnitude displayed is 2.5.

Coastal Water Temperatures

Place Temperature

Stations

Nearby Weather Stations

Station Location Temp. Windchill Dew Point Humidity Wind Precip. Elev Updated Type
                   

Watches & Warnings

There are currently no watches in effect.